Time;durP1;ratioP1;P1;durP2;ratioP2;P2;SDS_P1;SDS_P2;PMS_P1;PMS_P2;Temp;Humidity;BMP_temperature;BMP_pressure;BME280_temperature;BME280_humidity;BME280_pressure;Samples;Min_cycle;Max_cycle;Signal;HPM_P1;HPM_P2
2021/09/20 00:01:42;;;;;;;;;;;;;;;;;;5113236;28;19931;-70
2021/09/20 00:04:08;;;;;;;;;;;;;;;;;;5113322;28;19934;-70
2021/09/20 00:06:34;;;;;;;;;;;;;;;;;;5112842;28;19931;-70
2021/09/20 00:09:00;;;;;;;;;;;;;;;;;;5113268;28;19931;-70
2021/09/20 00:11:27;;;;;;;;;;;;;;;;;;5113095;28;19947;-70
2021/09/20 00:13:53;;;;;;;;;;;;;;;;;;5112859;28;19930;-70
2021/09/20 00:16:19;;;;;;;;;;;;;;;;;;5113286;28;19931;-70
2021/09/20 00:18:46;;;;;;;;;;;;;;;;;;5112682;28;20380;-70
2021/09/20 00:21:12;;;;;;;;;;;;;;;;;;5112862;28;19930;-70
2021/09/20 00:23:38;;;;;;;;;;;;;;;;;;5112618;28;19923;-70
2021/09/20 00:26:04;;;;;;;;;;;;;;;;;;5112753;28;20290;-71
2021/09/20 00:28:31;;;;;;;;;;;;;;;;;;5112576;28;19924;-70
2021/09/20 00:30:57;;;;;;;;;;;;;;;;;;5113117;28;19924;-70
2021/09/20 00:33:23;;;;;;;;;;;;;;;;;;5112728;28;20377;-70
2021/09/20 00:35:50;;;;;;;;;;;;;;;;;;5112547;28;19923;-70
2021/09/20 00:38:16;;;;;;;;;;;;;;;;;;5113077;28;19928;-70
2021/09/20 00:40:42;;;;;;;;;;;;;;;;;;5112324;28;19931;-71
2021/09/20 00:43:09;;;;;;;;;;;;;;;;;;5113031;28;19931;-71
2021/09/20 00:45:35;;;;;;;;;;;;;;;;;;5112405;28;20294;-71
2021/09/20 00:48:01;;;;;;;;;;;;;;;;;;5112604;28;19931;-70
2021/09/20 00:50:27;;;;;;;;;;;;;;;;;;5112718;28;19924;-71
2021/09/20 00:52:54;;;;;;;;;;;;;;;;;;5112580;28;20289;-71
2021/09/20 00:55:20;;;;;;;;;;;;;;;;;;5112615;28;19923;-72
2021/09/20 00:57:46;;;;;;;;;;;;;;;;;;5112624;28;19932;-70
2021/09/20 01:00:13;;;;;;;;;;;;;;;;;;5112466;28;19924;-71
2021/09/20 01:02:39;;;;;;;;;;;;;;;;;;5116018;28;19930;-71
2021/09/20 01:05:05;;;;;;;;;;;;;;;;;;5116800;28;19924;-70
2021/09/20 01:07:31;;;;;;;;;;;;;;;;;;5116224;28;19924;-71
2021/09/20 01:09:58;;;;;;;;;;;;;;;;;;5116393;28;19930;-71
2021/09/20 01:12:24;;;;;;;;;;;;;;;;;;5116452;28;19930;-71
2021/09/20 01:14:50;;;;;;;;;;;;;;;;;;5116290;28;20277;-71
2021/09/20 01:17:17;;;;;;;;;;;;;;;;;;5116231;28;19928;-70
2021/09/20 01:19:43;;;;;;;;;;;;;;;;;;5116093;28;19936;-71
2021/09/20 01:22:09;;;;;;;;;;;;;;;;;;5116150;28;20378;-71
2021/09/20 01:24:36;;;;;;;;;;;;;;;;;;5115596;28;19924;-71
2021/09/20 01:27:02;;;;;;;;;;;;;;;;;;5115955;28;19966;-71
2021/09/20 01:29:28;;;;;;;;;;;;;;;;;;5116045;28;19931;-71
2021/09/20 01:31:54;;;;;;;;;;;;;;;;;;5115935;28;20377;-71
2021/09/20 01:34:21;;;;;;;;;;;;;;;;;;5115701;28;19924;-71
2021/09/20 01:36:47;;;;;;;;;;;;;;;;;;5115928;28;19928;-71
2021/09/20 01:39:14;;;;;;;;;;;;;;;;;;5116168;28;19923;-71
2021/09/20 01:41:40;;;;;;;;;;;;;;;;;;5115421;28;20284;-71
2021/09/20 01:44:06;;;;;;;;;;;;;;;;;;5115823;28;19930;-70
2021/09/20 01:46:33;;;;;;;;;;;;;;;;;;5115752;28;19931;-71
2021/09/20 01:48:59;;;;;;;;;;;;;;;;;;5115627;28;20370;-71
2021/09/20 01:51:25;;;;;;;;;;;;;;;;;;5115585;28;19923;-71
2021/09/20 01:53:51;;;;;;;;;;;;;;;;;;5115846;28;19924;-71
2021/09/20 01:56:18;;;;;;;;;;;;;;;;;;5115769;28;19924;-71
2021/09/20 01:58:44;;;;;;;;;;;;;;;;;;5115003;28;19924;-71
2021/09/20 02:01:10;;;;;;;;;;;;;;;;;;5115628;28;19923;-71
2021/09/20 02:03:37;;;;;;;;;;;;;;;;;;5115073;28;20412;-71
2021/09/20 02:06:03;;;;;;;;;;;;;;;;;;5115294;28;19939;-70
2021/09/20 02:08:29;;;;;;;;;;;;;;;;;;5115299;28;19923;-70
2021/09/20 02:10:55;;;;;;;;;;;;;;;;;;5115140;28;19924;-70
2021/09/20 02:13:22;;;;;;;;;;;;;;;;;;5115202;28;19930;-70
2021/09/20 02:15:48;;;;;;;;;;;;;;;;;;5114841;28;20520;-70
2021/09/20 02:18:14;;;;;;;;;;;;;;;;;;5115381;28;19923;-70
2021/09/20 02:20:41;;;;;;;;;;;;;;;;;;5114958;28;20293;-70
2021/09/20 02:23:07;;;;;;;;;;;;;;;;;;5114616;28;19935;-71
2021/09/20 02:25:33;;;;;;;;;;;;;;;;;;5115054;28;19931;-71
2021/09/20 02:27:59;;;;;;;;;;;;;;;;;;5114898;28;19924;-70
2021/09/20 02:30:26;;;;;;;;;;;;;;;;;;5115046;28;19931;-70
2021/09/20 02:32:52;;;;;;;;;;;;;;;;;;5115090;28;19923;-70
2021/09/20 02:35:18;;;;;;;;;;;;;;;;;;5115021;28;19946;-71
2021/09/20 02:37:45;;;;;;;;;;;;;;;;;;5114257;28;19924;-70
2021/09/20 02:40:11;;;;;;;;;;;;;;;;;;5114869;28;19924;-70
2021/09/20 02:42:37;;;;;;;;;;;;;;;;;;5114345;28;20443;-71
2021/09/20 02:45:04;;;;;;;;;;;;;;;;;;5114530;28;19931;-71
2021/09/20 02:47:30;;;;;;;;;;;;;;;;;;5114479;28;19924;-70
2021/09/20 02:49:56;;;;;;;;;;;;;;;;;;5114369;28;20006;-71
2021/09/20 02:52:22;;;;;;;;;;;;;;;;;;5114674;28;19924;-70
2021/09/20 02:54:49;;;;;;;;;;;;;;;;;;5114327;28;19946;-70
2021/09/20 02:57:15;;;;;;;;;;;;;;;;;;5114266;28;19923;-71
2021/09/20 02:59:41;;;;;;;;;;;;;;;;;;5114223;28;19924;-70
2021/09/20 03:02:08;;;;;;;;;;;;;;;;;;5114108;28;19935;-70
2021/09/20 03:04:34;;;;;;;;;;;;;;;;;;5114124;28;19924;-70
2021/09/20 03:07:00;;;;;;;;;;;;;;;;;;5114422;28;19923;-70
2021/09/20 03:09:26;;;;;;;;;;;;;;;;;;5113820;28;19924;-70
2021/09/20 03:11:53;;;;;;;;;;;;;;;;;;5114312;28;19930;-71
2021/09/20 03:14:19;;;;;;;;;;;;;;;;;;5113757;28;19924;-70
2021/09/20 03:16:45;;;;;;;;;;;;;;;;;;5114008;28;20086;-71
2021/09/20 03:19:12;;;;;;;;;;;;;;;;;;5114132;28;19930;-71
2021/09/20 03:21:38;;;;;;;;;;;;;;;;;;5113476;28;19927;-70
2021/09/20 03:24:04;;;;;;;;;;;;;;;;;;5113014;28;20006;-71
2021/09/20 03:26:31;;;;;;;;;;;;;;;;;;5113476;28;20401;-70
2021/09/20 03:28:57;;;;;;;;;;;;;;;;;;5113678;28;19923;-70
2021/09/20 03:31:23;;;;;;;;;;;;;;;;;;5113985;28;19925;-70
2021/09/20 03:33:49;;;;;;;;;;;;;;;;;;5113407;28;20293;-70
2021/09/20 03:36:16;;;;;;;;;;;;;;;;;;5113674;28;19931;-70
2021/09/20 03:38:42;;;;;;;;;;;;;;;;;;5113581;28;19925;-70
2021/09/20 03:41:08;;;;;;;;;;;;;;;;;;5113401;28;19935;-70
2021/09/20 03:43:35;;;;;;;;;;;;;;;;;;5113198;28;19930;-71
2021/09/20 03:46:01;;;;;;;;;;;;;;;;;;5113718;28;19977;-71
2021/09/20 03:48:28;;;;;;;;;;;;;;;;;;5113411;28;19934;-71
2021/09/20 03:50:54;;;;;;;;;;;;;;;;;;5113530;28;20323;-71
2021/09/20 03:53:20;;;;;;;;;;;;;;;;;;5113195;28;19930;-70
2021/09/20 03:55:47;;;;;;;;;;;;;;;;;;5113265;28;19928;-71
2021/09/20 03:58:13;;;;;;;;;;;;;;;;;;5113116;28;19924;-71
2021/09/20 04:00:39;;;;;;;;;;;;;;;;;;5113164;28;19931;-71
2021/09/20 04:03:06;;;;;;;;;;;;;;;;;;5113398;28;19923;-71
2021/09/20 04:05:32;;;;;;;;;;;;;;;;;;5112856;28;20374;-71
2021/09/20 04:07:58;;;;;;;;;;;;;;;;;;5112967;28;19928;-71
2021/09/20 04:10:24;;;;;;;;;;;;;;;;;;5113315;28;19923;-71
2021/09/20 04:12:51;;;;;;;;;;;;;;;;;;5112716;28;20400;-70
2021/09/20 04:15:17;;;;;;;;;;;;;;;;;;5113185;28;19924;-70
2021/09/20 04:17:43;;;;;;;;;;;;;;;;;;5112873;28;19931;-70
2021/09/20 04:20:10;;;;;;;;;;;;;;;;;;5112838;28;19924;-70
2021/09/20 04:22:36;;;;;;;;;;;;;;;;;;5112599;28;19923;-71
2021/09/20 04:25:02;;;;;;;;;;;;;;;;;;5112610;28;19924;-70
2021/09/20 04:27:29;;;;;;;;;;;;;;;;;;5112559;28;19928;-70
2021/09/20 04:29:55;;;;;;;;;;;;;;;;;;5112833;28;19927;-70
2021/09/20 04:32:21;;;;;;;;;;;;;;;;;;5113128;28;19931;-70
2021/09/20 04:34:48;;;;;;;;;;;;;;;;;;5112529;28;20296;-71
2021/09/20 04:37:14;;;;;;;;;;;;;;;;;;5116087;28;19924;-70
2021/09/20 04:39:40;;;;;;;;;;;;;;;;;;5116941;28;19954;-70
2021/09/20 04:42:06;;;;;;;;;;;;;;;;;;5116837;28;19931;-70
2021/09/20 04:44:33;;;;;;;;;;;;;;;;;;5116818;28;19923;-70
2021/09/20 04:46:59;;;;;;;;;;;;;;;;;;5116785;28;20393;-70
2021/09/20 04:49:26;;;;;;;;;;;;;;;;;;5117053;28;19931;-71
2021/09/20 04:51:52;;;;;;;;;;;;;;;;;;5116742;28;19971;-71
2021/09/20 04:54:18;;;;;;;;;;;;;;;;;;5116584;28;20011;-72
2021/09/20 04:56:45;;;;;;;;;;;;;;;;;;5116608;28;19930;-72
2021/09/20 04:59:11;;;;;;;;;;;;;;;;;;5116543;28;20377;-72
2021/09/20 05:01:37;;;;;;;;;;;;;;;;;;5116183;28;19930;-72
2021/09/20 05:04:03;;;;;;;;;;;;;;;;;;5116782;28;19924;-72
2021/09/20 05:06:30;;;;;;;;;;;;;;;;;;5116063;28;19923;-71
2021/09/20 05:08:56;;;;;;;;;;;;;;;;;;5116663;28;19931;-74
2021/09/20 05:11:22;;;;;;;;;;;;;;;;;;5116539;28;19950;-72
2021/09/20 05:13:49;;;;;;;;;;;;;;;;;;5116089;28;19934;-73
2021/09/20 05:16:15;;;;;;;;;;;;;;;;;;5115861;28;19952;-73
2021/09/20 05:18:41;;;;;;;;;;;;;;;;;;5115372;28;19924;-72
2021/09/20 05:21:07;;;;;;;;;;;;;;;;;;5115862;28;20490;-71
2021/09/20 05:23:34;;;;;;;;;;;;;;;;;;5115885;28;19924;-72
2021/09/20 05:26:00;;;;;;;;;;;;;;;;;;5116329;28;19924;-73
2021/09/20 05:28:27;;;;;;;;;;;;;;;;;;5115677;28;19963;-72
2021/09/20 05:30:53;;;;;;;;;;;;;;;;;;5114225;28;20300;-73
2021/09/20 05:33:19;;;;;;;;;;;;;;;;;;5115896;28;19934;-72
2021/09/20 05:35:45;;;;;;;;;;;;;;;;;;5115831;28;19946;-72
2021/09/20 05:38:14;;;;;;;;;;;;;;;;;;5116057;28;19938;-73
2021/09/20 05:40:40;;;;;;;;;;;;;;;;;;5115831;28;20014;-72
2021/09/20 05:43:06;;;;;;;;;;;;;;;;;;5115685;28;20378;-72
2021/09/20 05:45:33;;;;;;;;;;;;;;;;;;5115397;28;19923;-72
2021/09/20 05:47:59;;;;;;;;;;;;;;;;;;5115303;28;19934;-72
2021/09/20 05:50:26;;;;;;;;;;;;;;;;;;5115604;28;20378;-72
2021/09/20 05:52:52;;;;;;;;;;;;;;;;;;5115889;28;19931;-72
2021/09/20 05:55:18;;;;;;;;;;;;;;;;;;5115478;28;20355;-72
2021/09/20 05:57:44;;;;;;;;;;;;;;;;;;5115467;28;19924;-72
2021/09/20 06:00:11;;;;;;;;;;;;;;;;;;5115744;28;19958;-72
2021/09/20 06:02:37;;;;;;;;;;;;;;;;;;5115106;28;19923;-72
2021/09/20 06:05:03;;;;;;;;;;;;;;;;;;5115639;28;19924;-72
2021/09/20 06:07:30;;;;;;;;;;;;;;;;;;5115358;28;19928;-72
2021/09/20 06:09:56;;;;;;;;;;;;;;;;;;5115154;28;19924;-72
2021/09/20 06:12:22;;;;;;;;;;;;;;;;;;5115504;28;19924;-72
2021/09/20 06:14:49;;;;;;;;;;;;;;;;;;5114876;28;20325;-72
2021/09/20 06:17:15;;;;;;;;;;;;;;;;;;5115098;28;19923;-72
2021/09/20 06:19:41;;;;;;;;;;;;;;;;;;5114935;28;19924;-72
2021/09/20 06:22:07;;;;;;;;;;;;;;;;;;5114956;28;19930;-72
2021/09/20 06:24:34;;;;;;;;;;;;;;;;;;5114656;28;19924;-71
2021/09/20 06:27:00;;;;;;;;;;;;;;;;;;5115199;28;19934;-72
2021/09/20 06:29:26;;;;;;;;;;;;;;;;;;5114560;28;19924;-72
2021/09/20 06:31:53;;;;;;;;;;;;;;;;;;5115108;28;19924;-72
2021/09/20 06:34:19;;;;;;;;;;;;;;;;;;5114565;28;20286;-72
2021/09/20 06:36:45;;;;;;;;;;;;;;;;;;5114430;28;19924;-72
2021/09/20 06:39:11;;;;;;;;;;;;;;;;;;5114962;28;19924;-72
2021/09/20 06:41:38;;;;;;;;;;;;;;;;;;5114297;28;19927;-72
2021/09/20 06:44:04;;;;;;;;;;;;;;;;;;5114827;28;19924;-72
2021/09/20 06:46:31;;;;;;;;;;;;;;;;;;5114573;28;19928;-72
2021/09/20 06:48:57;;;;;;;;;;;;;;;;;;5114351;28;19969;-72
2021/09/20 06:51:24;;;;;;;;;;;;;;;;;;5114730;28;19924;-72
2021/09/20 06:53:50;;;;;;;;;;;;;;;;;;5114132;28;20386;-72
2021/09/20 06:56:17;;;;;;;;;;;;;;;;;;5114305;28;19923;-72
2021/09/20 06:58:43;;;;;;;;;;;;;;;;;;5113425;28;19931;-72
2021/09/20 07:01:09;;;;;;;;;;;;;;;;;;5113945;28;20294;-72
2021/09/20 07:03:35;;;;;;;;;;;;;;;;;;5114222;28;19931;-72
2021/09/20 07:06:02;;;;;;;;;;;;;;;;;;5114145;28;20416;-72
2021/09/20 07:08:28;;;;;;;;;;;;;;;;;;5113843;28;19924;-72
2021/09/20 07:10:54;;;;;;;;;;;;;;;;;;5114259;28;19923;-72
2021/09/20 07:13:21;;;;;;;;;;;;;;;;;;5113925;28;20416;-72
2021/09/20 07:15:47;;;;;;;;;;;;;;;;;;5113760;28;19931;-73
2021/09/20 07:18:13;;;;;;;;;;;;;;;;;;5114235;28;19931;-73
2021/09/20 07:20:40;;;;;;;;;;;;;;;;;;5113673;28;20396;-72
2021/09/20 07:23:06;;;;;;;;;;;;;;;;;;5113806;28;19924;-72
2021/09/20 07:25:32;;;;;;;;;;;;;;;;;;5113775;28;19924;-72
2021/09/20 07:27:58;;;;;;;;;;;;;;;;;;5113754;28;19924;-72
2021/09/20 07:30:25;;;;;;;;;;;;;;;;;;5114000;28;19924;-72
2021/09/20 07:32:51;;;;;;;;;;;;;;;;;;5113470;28;20393;-72
2021/09/20 07:35:17;;;;;;;;;;;;;;;;;;5113518;28;19931;-73
2021/09/20 07:37:44;;;;;;;;;;;;;;;;;;5113526;28;19924;-72
2021/09/20 07:40:10;;;;;;;;;;;;;;;;;;5113787;28;19989;-72
2021/09/20 07:42:36;;;;;;;;;;;;;;;;;;5113150;28;19931;-72
2021/09/20 07:45:03;;;;;;;;;;;;;;;;;;5113637;28;19923;-72
2021/09/20 07:47:29;;;;;;;;;;;;;;;;;;5113179;28;20313;-72
2021/09/20 07:49:55;;;;;;;;;;;;;;;;;;5113229;28;19924;-72
2021/09/20 07:52:22;;;;;;;;;;;;;;;;;;5113514;28;19927;-73
2021/09/20 07:54:48;;;;;;;;;;;;;;;;;;5113024;28;20293;-72
2021/09/20 07:57:14;;;;;;;;;;;;;;;;;;5113212;28;19931;-73
2021/09/20 07:59:40;;;;;;;;;;;;;;;;;;5113109;28;19928;-72
2021/09/20 08:02:07;;;;;;;;;;;;;;;;;;5113286;28;19924;-72
2021/09/20 08:04:33;;;;;;;;;;;;;;;;;;5112899;28;19930;-72
2021/09/20 08:06:59;;;;;;;;;;;;;;;;;;5113122;28;19924;-72
2021/09/20 08:09:26;;;;;;;;;;;;;;;;;;5113128;28;19923;-72
2021/09/20 08:11:52;;;;;;;;;;;;;;;;;;5113085;28;19950;-72
2021/09/20 08:14:18;;;;;;;;;;;;;;;;;;5112995;28;19924;-73
2021/09/20 08:16:45;;;;;;;;;;;;;;;;;;5113044;28;19930;-73
2021/09/20 08:19:11;;;;;;;;;;;;;;;;;;5113250;28;19924;-72
2021/09/20 08:21:37;;;;;;;;;;;;;;;;;;5112512;28;20395;-72
2021/09/20 08:24:03;;;;;;;;;;;;;;;;;;5112751;28;19930;-72
2021/09/20 08:26:30;;;;;;;;;;;;;;;;;;5112806;28;19930;-73
2021/09/20 08:28:56;;;;;;;;;;;;;;;;;;5112850;28;20409;-72
2021/09/20 08:31:22;;;;;;;;;;;;;;;;;;5112730;28;19928;-72
2021/09/20 08:33:49;;;;;;;;;;;;;;;;;;5112884;28;19930;-73
2021/09/20 08:36:15;;;;;;;;;;;;;;;;;;5112880;28;19923;-72
2021/09/20 08:38:41;;;;;;;;;;;;;;;;;;5112506;28;19924;-72
2021/09/20 08:41:08;;;;;;;;;;;;;;;;;;5113026;28;19931;-73
2021/09/20 08:43:34;;;;;;;;;;;;;;;;;;5112343;28;20298;-74
2021/09/20 08:46:00;;;;;;;;;;;;;;;;;;5112628;28;19924;-74
2021/09/20 08:48:27;;;;;;;;;;;;;;;;;;5112736;28;19930;-72
2021/09/20 08:50:53;;;;;;;;;;;;;;;;;;5112904;28;20018;-72
2021/09/20 08:53:20;;;;;;;;;;;;;;;;;;5112600;28;20378;-72
2021/09/20 08:55:46;;;;;;;;;;;;;;;;;;5112606;28;20286;-73
2021/09/20 08:58:12;;;;;;;;;;;;;;;;;;5112851;28;19927;-72
2021/09/20 09:00:39;;;;;;;;;;;;;;;;;;5112203;28;20310;-73
2021/09/20 09:03:05;;;;;;;;;;;;;;;;;;5112462;28;19931;-73
2021/09/20 09:05:31;;;;;;;;;;;;;;;;;;5112567;28;19923;-73
2021/09/20 09:07:58;;;;;;;;;;;;;;;;;;5112817;28;19946;-73
2021/09/20 09:10:24;;;;;;;;;;;;;;;;;;5112294;28;19924;-72
2021/09/20 09:12:50;;;;;;;;;;;;;;;;;;5112568;28;19934;-73
2021/09/20 09:15:17;;;;;;;;;;;;;;;;;;5112812;28;20304;-72
2021/09/20 09:17:43;;;;;;;;;;;;;;;;;;5112085;28;19927;-73
2021/09/20 09:20:09;;;;;;;;;;;;;;;;;;5112717;28;19924;-72
2021/09/20 09:22:36;;;;;;;;;;;;;;;;;;5114151;28;20378;-72
2021/09/20 09:25:02;;;;;;;;;;;;;;;;;;5115846;28;19923;-73
2021/09/20 09:27:28;;;;;;;;;;;;;;;;;;5116224;28;19923;-73
2021/09/20 09:29:54;;;;;;;;;;;;;;;;;;5116017;28;20398;-73
2021/09/20 09:32:21;;;;;;;;;;;;;;;;;;5116279;28;19924;-72
2021/09/20 09:34:47;;;;;;;;;;;;;;;;;;5115947;28;19924;-73
2021/09/20 09:37:14;;;;;;;;;;;;;;;;;;5115842;28;19928;-73
2021/09/20 09:39:40;;;;;;;;;;;;;;;;;;5116035;28;19931;-72
2021/09/20 09:42:07;;;;;;;;;;;;;;;;;;5116036;28;19923;-73
2021/09/20 09:44:33;;;;;;;;;;;;;;;;;;5115506;28;19934;-72
2021/09/20 09:46:59;;;;;;;;;;;;;;;;;;5115984;28;19923;-73
2021/09/20 09:49:26;;;;;;;;;;;;;;;;;;5115871;28;19923;-73
2021/09/20 09:51:52;;;;;;;;;;;;;;;;;;5115967;28;20294;-72
2021/09/20 09:54:18;;;;;;;;;;;;;;;;;;5115568;28;19924;-72
2021/09/20 09:56:44;;;;;;;;;;;;;;;;;;5115516;28;19931;-72
2021/09/20 09:59:11;;;;;;;;;;;;;;;;;;5115392;28;20397;-73
2021/09/20 10:01:37;;;;;;;;;;;;;;;;;;5115484;28;19924;-72
2021/09/20 10:04:04;;;;;;;;;;;;;;;;;;5115337;28;19975;-73
2021/09/20 10:06:31;;;;;;;;;;;;;;;;;;5115412;28;19923;-72
2021/09/20 10:08:57;;;;;;;;;;;;;;;;;;5115210;28;19924;-73
2021/09/20 10:11:23;;;;;;;;;;;;;;;;;;5115536;28;19927;-73
2021/09/20 10:13:50;;;;;;;;;;;;;;;;;;5114833;28;20219;-73
2021/09/20 10:16:16;;;;;;;;;;;;;;;;;;5115064;28;19924;-72
2021/09/20 10:18:42;;;;;;;;;;;;;;;;;;5115087;28;19924;-73
2021/09/20 10:21:08;;;;;;;;;;;;;;;;;;5115083;28;20286;-73
2021/09/20 10:23:35;;;;;;;;;;;;;;;;;;5114431;28;19924;-72
2021/09/20 10:26:01;;;;;;;;;;;;;;;;;;5115303;28;19923;-72
2021/09/20 10:28:27;;;;;;;;;;;;;;;;;;5114702;28;20374;-72
2021/09/20 10:30:54;;;;;;;;;;;;;;;;;;5114785;28;19928;-72
2021/09/20 10:33:20;;;;;;;;;;;;;;;;;;5114731;28;19924;-73
2021/09/20 10:35:47;;;;;;;;;;;;;;;;;;5114487;28;20408;-73
2021/09/20 10:38:13;;;;;;;;;;;;;;;;;;5114589;28;19930;-72
2021/09/20 10:40:39;;;;;;;;;;;;;;;;;;5114776;28;19930;-73
2021/09/20 10:43:06;;;;;;;;;;;;;;;;;;5114462;28;19927;-72
2021/09/20 10:45:32;;;;;;;;;;;;;;;;;;5114650;28;19924;-73
2021/09/20 10:47:58;;;;;;;;;;;;;;;;;;5114532;28;19931;-73
2021/09/20 10:50:24;;;;;;;;;;;;;;;;;;5114803;28;19924;-72
2021/09/20 10:52:51;;;;;;;;;;;;;;;;;;5114630;28;19923;-72
2021/09/20 10:55:17;;;;;;;;;;;;;;;;;;5114299;28;19924;-72
2021/09/20 10:57:43;;;;;;;;;;;;;;;;;;5114385;28;19928;-72
2021/09/20 11:00:10;;;;;;;;;;;;;;;;;;5114476;28;19923;-73
2021/09/20 11:02:36;;;;;;;;;;;;;;;;;;5113951;28;19924;-73
2021/09/20 11:05:02;;;;;;;;;;;;;;;;;;5114452;28;20187;-72
2021/09/20 11:07:29;;;;;;;;;;;;;;;;;;5113884;28;19931;-72
2021/09/20 11:09:56;;;;;;;;;;;;;;;;;;5114351;28;19924;-72
2021/09/20 11:12:22;;;;;;;;;;;;;;;;;;5114298;28;19923;-73
2021/09/20 11:14:49;;;;;;;;;;;;;;;;;;5113662;28;19923;-73
2021/09/20 11:17:15;;;;;;;;;;;;;;;;;;5114153;28;19930;-73
2021/09/20 11:19:42;;;;;;;;;;;;;;;;;;5114248;28;19924;-73
2021/09/20 11:22:10;;;;;;;;;;;;;;;;;;5114217;28;20085;-72
2021/09/20 11:24:36;;;;;;;;;;;;;;;;;;5113282;28;19924;-73
2021/09/20 11:27:03;;;;;;;;;;;;;;;;;;5114065;28;19923;-72
2021/09/20 11:29:29;;;;;;;;;;;;;;;;;;5113310;28;20297;-72
2021/09/20 11:31:55;;;;;;;;;;;;;;;;;;5113688;28;19931;-72
2021/09/20 11:34:24;;;;;;;;;;;;;;;;;;5113244;28;20189;-72
2021/09/20 11:36:50;;;;;;;;;;;;;;;;;;5113687;28;19946;-72
2021/09/20 11:39:16;;;;;;;;;;;;;;;;;;5113429;28;19931;-72
2021/09/20 11:41:45;;;;;;;;;;;;;;;;;;5113543;28;20195;-72
2021/09/20 11:44:12;;;;;;;;;;;;;;;;;;5113167;28;19988;-72
2021/09/20 11:46:38;;;;;;;;;;;;;;;;;;5113021;28;19923;-73
2021/09/20 11:49:04;;;;;;;;;;;;;;;;;;5113659;28;19936;-73
2021/09/20 11:51:31;;;;;;;;;;;;;;;;;;5112988;28;20366;-73
2021/09/20 11:53:57;;;;;;;;;;;;;;;;;;5113297;28;19924;-72
2021/09/20 11:56:23;;;;;;;;;;;;;;;;;;5113566;28;19947;-73
2021/09/20 11:58:50;;;;;;;;;;;;;;;;;;5112918;28;19923;-73
2021/09/20 12:01:16;;;;;;;;;;;;;;;;;;5113588;28;19924;-73
2021/09/20 12:03:42;;;;;;;;;;;;;;;;;;5112854;28;20389;-73
2021/09/20 12:06:10;;;;;;;;;;;;;;;;;;5113256;28;19931;-73
2021/09/20 12:08:36;;;;;;;;;;;;;;;;;;5112785;28;19931;-72
2021/09/20 12:11:02;;;;;;;;;;;;;;;;;;5113574;28;19934;-72
2021/09/20 12:13:29;;;;;;;;;;;;;;;;;;5112640;28;20301;-74
2021/09/20 12:15:55;;;;;;;;;;;;;;;;;;5113108;28;20390;-74
2021/09/20 12:18:23;;;;;;;;;;;;;;;;;;5112840;28;20022;-74
2021/09/20 12:20:50;;;;;;;;;;;;;;;;;;5112910;28;19953;-72
2021/09/20 12:23:16;;;;;;;;;;;;;;;;;;5112871;28;19931;-75
2021/09/20 12:25:42;;;;;;;;;;;;;;;;;;5112919;28;20015;-74
2021/09/20 12:28:08;;;;;;;;;;;;;;;;;;5112966;28;20366;-73
2021/09/20 12:30:35;;;;;;;;;;;;;;;;;;5112453;28;19923;-73
2021/09/20 12:33:01;;;;;;;;;;;;;;;;;;5113127;28;19923;-73
2021/09/20 12:35:27;;;;;;;;;;;;;;;;;;5112973;28;19923;-72
2021/09/20 12:37:54;;;;;;;;;;;;;;;;;;5112877;28;19935;-72
2021/09/20 12:40:20;;;;;;;;;;;;;;;;;;5112929;28;19924;-73
2021/09/20 12:42:46;;;;;;;;;;;;;;;;;;5112396;28;20378;-73
2021/09/20 12:45:13;;;;;;;;;;;;;;;;;;5112983;28;19923;-73
2021/09/20 12:47:39;;;;;;;;;;;;;;;;;;5112642;28;19928;-73
2021/09/20 12:50:06;;;;;;;;;;;;;;;;;;5112555;28;20370;-73
2021/09/20 12:52:32;;;;;;;;;;;;;;;;;;5112648;28;19931;-73
2021/09/20 12:54:59;;;;;;;;;;;;;;;;;;5112598;28;19924;-72
2021/09/20 12:57:25;;;;;;;;;;;;;;;;;;5114708;28;19923;-72
2021/09/20 12:59:51;;;;;;;;;;;;;;;;;;5116839;28;20006;-72
2021/09/20 13:02:18;;;;;;;;;;;;;;;;;;5116582;28;19930;-72
2021/09/20 13:04:44;;;;;;;;;;;;;;;;;;5116503;28;20015;-74
2021/09/20 13:07:11;;;;;;;;;;;;;;;;;;5116375;28;20377;-73
2021/09/20 13:09:37;;;;;;;;;;;;;;;;;;5116508;28;19923;-73
2021/09/20 13:12:04;;;;;;;;;;;;;;;;;;5116471;28;19927;-73
2021/09/20 13:14:32;;;;;;;;;;;;;;;;;;5116345;28;19924;-72
2021/09/20 13:16:58;;;;;;;;;;;;;;;;;;5116526;28;19928;-73
2021/09/20 13:19:25;;;;;;;;;;;;;;;;;;5116219;28;19924;-71
2021/09/20 13:21:51;;;;;;;;;;;;;;;;;;5116057;28;19923;-73
2021/09/20 13:24:17;;;;;;;;;;;;;;;;;;5116109;28;19930;-74
2021/09/20 13:26:44;;;;;;;;;;;;;;;;;;5115788;28;20415;-73
2021/09/20 13:29:10;;;;;;;;;;;;;;;;;;5116204;28;19923;-73
2021/09/20 13:31:36;;;;;;;;;;;;;;;;;;5116084;28;19931;-73
2021/09/20 13:34:02;;;;;;;;;;;;;;;;;;5116014;28;20192;-73
2021/09/20 13:36:29;;;;;;;;;;;;;;;;;;5115829;28;19924;-74
2021/09/20 13:38:55;;;;;;;;;;;;;;;;;;5116419;28;20006;-71
2021/09/20 13:41:21;;;;;;;;;;;;;;;;;;5115878;28;19924;-74
2021/09/20 13:43:48;;;;;;;;;;;;;;;;;;5115647;28;20324;-72
2021/09/20 13:46:14;;;;;;;;;;;;;;;;;;5115714;28;19942;-72
2021/09/20 13:48:40;;;;;;;;;;;;;;;;;;5115689;28;19923;-73
2021/09/20 13:51:07;;;;;;;;;;;;;;;;;;5115825;28;20401;-72
2021/09/20 13:53:33;;;;;;;;;;;;;;;;;;5115458;28;19931;-72
2021/09/20 13:55:59;;;;;;;;;;;;;;;;;;5115873;28;19930;-72
2021/09/20 13:58:26;;;;;;;;;;;;;;;;;;5115843;28;19946;-72
2021/09/20 14:00:52;;;;;;;;;;;;;;;;;;5115440;28;19942;-74
2021/09/20 14:03:18;;;;;;;;;;;;;;;;;;5115643;28;19930;-72
2021/09/20 14:05:44;;;;;;;;;;;;;;;;;;5115380;28;19949;-72
2021/09/20 14:08:11;;;;;;;;;;;;;;;;;;5114872;28;19924;-72
2021/09/20 14:10:37;;;;;;;;;;;;;;;;;;5115192;28;19924;-72
2021/09/20 14:13:03;;;;;;;;;;;;;;;;;;5115532;28;19923;-72
2021/09/20 14:15:30;;;;;;;;;;;;;;;;;;5114876;28;19924;-72
2021/09/20 14:17:56;;;;;;;;;;;;;;;;;;5115251;28;19924;-72
2021/09/20 14:20:22;;;;;;;;;;;;;;;;;;5115307;28;19923;-73
2021/09/20 14:22:48;;;;;;;;;;;;;;;;;;5114799;28;19924;-72
2021/09/20 14:25:15;;;;;;;;;;;;;;;;;;5114849;28;19927;-72
2021/09/20 14:27:41;;;;;;;;;;;;;;;;;;5115247;28;19924;-72
2021/09/20 14:30:07;;;;;;;;;;;;;;;;;;5114688;28;20397;-73
2021/09/20 14:32:34;;;;;;;;;;;;;;;;;;5114612;28;19932;-73
2021/09/20 14:35:00;;;;;;;;;;;;;;;;;;5115087;28;19973;-73
2021/09/20 14:37:26;;;;;;;;;;;;;;;;;;5114510;28;19931;-73
2021/09/20 14:39:53;;;;;;;;;;;;;;;;;;5114936;28;19931;-73
2021/09/20 14:42:19;;;;;;;;;;;;;;;;;;5114714;28;20274;-73
2021/09/20 14:44:45;;;;;;;;;;;;;;;;;;5114188;28;19927;-72
2021/09/20 14:47:12;;;;;;;;;;;;;;;;;;5114801;28;19930;-72
2021/09/20 14:49:38;;;;;;;;;;;;;;;;;;5114591;28;19923;-72
2021/09/20 14:52:04;;;;;;;;;;;;;;;;;;5114511;28;20404;-71
2021/09/20 14:54:32;;;;;;;;;;;;;;;;;;5114487;28;19924;-71
2021/09/20 14:56:58;;;;;;;;;;;;;;;;;;5114251;28;20369;-73
2021/09/20 14:59:24;;;;;;;;;;;;;;;;;;5114308;28;19968;-72
2021/09/20 15:01:51;;;;;;;;;;;;;;;;;;5114256;28;19924;-73
2021/09/20 15:04:17;;;;;;;;;;;;;;;;;;5114334;28;19923;-72
2021/09/20 15:06:43;;;;;;;;;;;;;;;;;;5113617;28;19924;-73
2021/09/20 15:09:10;;;;;;;;;;;;;;;;;;5112568;28;20385;-73
2021/09/20 15:11:36;;;;;;;;;;;;;;;;;;5113085;28;19935;-73
2021/09/20 15:14:02;;;;;;;;;;;;;;;;;;5113743;28;19924;-73
2021/09/20 15:16:29;;;;;;;;;;;;;;;;;;5113235;28;20374;-73
2021/09/20 15:18:55;;;;;;;;;;;;;;;;;;5113424;28;19939;-73
2021/09/20 15:21:21;;;;;;;;;;;;;;;;;;5113402;28;20281;-73
2021/09/20 15:23:47;;;;;;;;;;;;;;;;;;5113289;28;19923;-73
2021/09/20 15:26:14;;;;;;;;;;;;;;;;;;5114168;28;19924;-73
2021/09/20 15:28:40;;;;;;;;;;;;;;;;;;5113763;28;19959;-73
2021/09/20 15:31:06;;;;;;;;;;;;;;;;;;5113742;28;20293;-73
2021/09/20 15:33:33;;;;;;;;;;;;;;;;;;5113292;28;19923;-73
2021/09/20 15:35:59;;;;;;;;;;;;;;;;;;5113990;28;19939;-73
2021/09/20 15:38:25;;;;;;;;;;;;;;;;;;5113479;28;20377;-72
2021/09/20 15:40:51;;;;;;;;;;;;;;;;;;5113535;28;19930;-73
2021/09/20 15:43:18;;;;;;;;;;;;;;;;;;5113862;28;19924;-73
2021/09/20 15:45:45;;;;;;;;;;;;;;;;;;5113194;28;20336;-73
2021/09/20 15:48:11;;;;;;;;;;;;;;;;;;5113397;28;20438;-73
2021/09/20 15:50:38;;;;;;;;;;;;;;;;;;5113042;28;19923;-73
2021/09/20 15:53:04;;;;;;;;;;;;;;;;;;5113616;28;19924;-73
2021/09/20 15:55:30;;;;;;;;;;;;;;;;;;5113089;28;20382;-73
2021/09/20 15:57:57;;;;;;;;;;;;;;;;;;5113258;28;19928;-74
2021/09/20 16:00:23;;;;;;;;;;;;;;;;;;5113559;28;19943;-73
2021/09/20 16:02:49;;;;;;;;;;;;;;;;;;5112862;28;20396;-73
2021/09/20 16:05:16;;;;;;;;;;;;;;;;;;5113089;28;19924;-73
2021/09/20 16:07:42;;;;;;;;;;;;;;;;;;5113203;28;19923;-73
2021/09/20 16:10:08;;;;;;;;;;;;;;;;;;5113502;28;20293;-73
2021/09/20 16:12:34;;;;;;;;;;;;;;;;;;5112746;28;19930;-70
2021/09/20 16:15:01;;;;;;;;;;;;;;;;;;5113237;28;19924;-72
2021/09/20 16:17:27;;;;;;;;;;;;;;;;;;5113043;28;19928;-74
2021/09/20 16:19:53;;;;;;;;;;;;;;;;;;5112945;28;19924;-73
2021/09/20 16:22:20;;;;;;;;;;;;;;;;;;5112796;28;20022;-73
2021/09/20 16:24:46;;;;;;;;;;;;;;;;;;5112440;28;19936;-73
2021/09/20 16:27:12;;;;;;;;;;;;;;;;;;5113139;28;20405;-73
2021/09/20 16:29:39;;;;;;;;;;;;;;;;;;5112508;28;20394;-74
2021/09/20 16:32:05;;;;;;;;;;;;;;;;;;5118182;28;19930;-74
2021/09/20 16:34:33;;;;;;;;;;;;;;;;;;5119950;28;19923;-73
2021/09/20 16:36:59;;;;;;;;;;;;;;;;;;5120066;28;20022;-74
2021/09/20 16:39:25;;;;;;;;;;;;;;;;;;5119708;28;19924;-74